createdAt,value
2017-06-19T00:00:30.841Z,41.27
2017-06-19T00:01:40.752Z,41.17
2017-06-19T00:02:50.659Z,41.37
2017-06-19T00:04:00.663Z,41.37
2017-06-19T00:05:10.571Z,41.25
2017-06-19T00:06:20.787Z,41.35
2017-06-19T00:07:30.392Z,41.37
2017-06-19T00:08:40.003Z,41.45
2017-06-19T00:09:50.340Z,41.66
2017-06-19T00:11:00.249Z,41.47
2017-06-19T00:12:10.467Z,41.56
2017-06-19T00:13:20.078Z,41.66
2017-06-19T00:14:30.293Z,42.24
2017-06-19T00:15:40.505Z,41.95
2017-06-19T00:16:50.417Z,42.13
2017-06-19T00:18:00.341Z,41.93
2017-06-19T00:19:10.243Z,41.83
2017-06-19T00:20:19.857Z,41.74
2017-06-19T00:21:29.813Z,42.22
2017-06-19T00:22:39.427Z,42.13
2017-06-19T00:23:49.645Z,42.03
2017-06-19T00:24:59.259Z,41.93
2017-06-19T00:26:09.180Z,41.83
2017-06-19T00:27:18.618Z,41.93
2017-06-19T00:28:28.529Z,41.74
2017-06-19T00:29:38.752Z,41.74
2017-06-19T00:30:48.672Z,42.13
2017-06-19T00:31:58.916Z,41.93
2017-06-19T00:33:09.187Z,42.22
2017-06-19T00:34:18.791Z,41.93
2017-06-19T00:35:29.020Z,41.74
2017-06-19T00:36:38.951Z,41.83
2017-06-19T00:37:48.865Z,42.22
2017-06-19T00:38:59.181Z,42.41
2017-06-19T00:40:08.811Z,42.13
2017-06-19T00:41:18.742Z,42.22
2017-06-19T00:42:28.359Z,42.32
2017-06-19T00:43:38.273Z,42.03
2017-06-19T00:44:48.347Z,42.22
2017-06-19T00:45:58.262Z,42.41
2017-06-19T00:47:07.902Z,42.22
2017-06-19T00:48:17.835Z,42.22
2017-06-19T00:49:27.749Z,42.41
2017-06-19T00:50:37.658Z,42.51
2017-06-19T00:51:47.878Z,42.41
2017-06-19T00:52:57.474Z,42.41
2017-06-19T00:54:06.754Z,42.51
2017-06-19T00:55:16.663Z,42.51
2017-06-19T00:56:26.734Z,42.41
2017-06-19T00:57:36.645Z,42.41
2017-06-19T00:58:46.261Z,42.41
2017-06-19T00:59:56.484Z,42.51
2017-06-19T01:01:06.107Z,42.41
2017-06-19T01:02:16.019Z,42.32
2017-06-19T01:03:25.319Z,42.13
2017-06-19T01:04:35.224Z,42.32
2017-06-19T01:05:44.829Z,42.41
2017-06-19T01:06:54.429Z,42.51
2017-06-19T01:08:04.338Z,42.51
2017-06-19T01:09:14.568Z,42.61
2017-06-19T01:10:24.180Z,42.4
2017-06-19T01:11:34.088Z,42.51
2017-06-19T01:12:44.000Z,42.8
2017-06-19T01:13:54.269Z,42.68
2017-06-19T01:15:04.188Z,42.68
2017-06-19T01:16:14.408Z,42.78
2017-06-19T01:17:23.702Z,42.68
2017-06-19T01:18:33.932Z,42.97
2017-06-19T01:19:43.231Z,43.07
2017-06-19T01:20:53.446Z,42.88
2017-06-19T01:22:03.051Z,42.97
2017-06-19T01:23:12.678Z,43.07
2017-06-19T01:24:22.280Z,43.07
2017-06-19T01:25:31.896Z,42.88
2017-06-19T01:26:41.807Z,42.97
2017-06-19T01:27:51.726Z,42.97
2017-06-19T01:29:01.637Z,42.78
2017-06-19T01:30:11.559Z,42.88
2017-06-19T01:31:21.823Z,43.27
2017-06-19T01:32:31.424Z,43.27
2017-06-19T01:33:41.331Z,43.17
2017-06-19T01:34:51.576Z,43.17
2017-06-19T01:36:01.490Z,42.97
2017-06-19T01:37:11.440Z,43.07
2017-06-19T01:38:21.346Z,42.97
2017-06-19T01:39:31.267Z,43.07
2017-06-19T01:40:40.876Z,43.07
2017-06-19T01:41:50.779Z,43.05
2017-06-19T01:43:00.850Z,43.27
2017-06-19T01:44:10.449Z,43.07
2017-06-19T01:45:20.349Z,43.65
2017-06-19T01:46:29.966Z,43.75
2017-06-19T01:47:39.580Z,43.73
2017-06-19T01:48:48.880Z,43.82
2017-06-19T01:49:59.094Z,43.82
2017-06-19T01:51:09.312Z,43.73
2017-06-19T01:52:19.525Z,43.92
2017-06-19T01:53:29.126Z,43.92
2017-06-19T01:54:39.204Z,44.21
2017-06-19T01:55:49.123Z,44.02
2017-06-19T01:56:59.344Z,43.92
2017-06-19T01:58:09.258Z,43.92
2017-06-19T01:59:18.549Z,43.92
2017-06-19T02:00:28.905Z,43.82
2017-06-19T02:01:38.819Z,44.02
2017-06-19T02:02:48.741Z,44.31
2017-06-19T02:03:58.651Z,44.31
2017-06-19T02:05:08.575Z,44.38
2017-06-19T02:06:18.939Z,44.29
2017-06-19T02:07:28.840Z,43.92
2017-06-19T02:08:39.055Z,44.12
2017-06-19T02:09:48.672Z,44.19
2017-06-19T02:10:58.891Z,44.19
2017-06-19T02:12:08.809Z,44.38
2017-06-19T02:13:18.118Z,44.09
2017-06-19T02:14:28.033Z,44.5
2017-06-19T02:15:37.631Z,44.21
2017-06-19T02:16:47.846Z,44.29
2017-06-19T02:17:58.407Z,44.31
2017-06-19T02:19:07.693Z,44.38
2017-06-19T02:20:17.938Z,44.29
2017-06-19T02:21:27.848Z,44.19
2017-06-19T02:22:38.060Z,44.77
2017-06-19T02:23:48.114Z,44.96
2017-06-19T02:24:58.027Z,44.87
2017-06-19T02:26:07.636Z,44.96
2017-06-19T02:27:17.537Z,44.96
2017-06-19T02:28:27.447Z,44.96
2017-06-19T02:29:37.097Z,44.87
2017-06-19T02:30:47.331Z,44.87
2017-06-19T02:31:57.549Z,44.87
2017-06-19T02:33:07.467Z,44.96
2017-06-19T02:34:17.381Z,44.87
2017-06-19T02:35:27.597Z,44.67
2017-06-19T02:36:37.503Z,44.77
2017-06-19T02:37:46.797Z,44.67
2017-06-19T02:38:57.033Z,44.67
2017-06-19T02:40:06.955Z,44.87
2017-06-19T02:41:17.525Z,45.06
2017-06-19T02:42:27.427Z,45.06
2017-06-19T02:43:37.036Z,45.16
2017-06-19T02:44:46.940Z,44.87
2017-06-19T02:45:56.849Z,44.67
2017-06-19T02:47:07.106Z,44.48
2017-06-19T02:48:16.703Z,44.67
2017-06-19T02:49:26.612Z,44.87
2017-06-19T02:50:36.532Z,44.87
2017-06-19T02:51:46.753Z,45.16
2017-06-19T02:52:57.282Z,44.96
2017-06-19T02:54:07.496Z,44.67
2017-06-19T02:55:17.094Z,44.67
2017-06-19T02:56:27.330Z,44.77
2017-06-19T02:57:36.936Z,44.38
2017-06-19T02:58:47.196Z,44.57
2017-06-19T02:59:57.104Z,44.77
2017-06-19T03:01:07.311Z,44.67
2017-06-19T03:02:17.213Z,44.57
2017-06-19T03:03:26.816Z,45.06
2017-06-19T03:04:37.090Z,45.06
2017-06-19T03:05:47.302Z,44.87
2017-06-19T03:06:57.528Z,44.96
2017-06-19T03:08:07.742Z,44.96
2017-06-19T03:09:17.688Z,45.16
2017-06-19T03:10:28.004Z,45.25
2017-06-19T03:11:37.904Z,45.35
2017-06-19T03:12:47.833Z,45.25
2017-06-19T03:13:57.736Z,45.35
2017-06-19T03:15:07.358Z,45.83
2017-06-19T03:16:16.976Z,45.35
2017-06-19T03:17:26.597Z,45.54
2017-06-19T03:18:36.210Z,45.45
2017-06-19T03:19:45.802Z,46.1
2017-06-19T03:20:55.711Z,45.81
2017-06-19T03:22:05.778Z,45.91
2017-06-19T03:23:15.692Z,45.72
2017-06-19T03:24:24.983Z,45.91
2017-06-19T03:25:34.576Z,45.91
2017-06-19T03:26:44.478Z,45.72
2017-06-19T03:27:54.188Z,45.72
2017-06-19T03:29:03.782Z,45.91
2017-06-19T03:30:13.993Z,45.52
2017-06-19T03:31:24.216Z,45.42
2017-06-19T03:32:34.433Z,45.81
2017-06-19T03:33:44.502Z,45.81
2017-06-19T03:34:54.416Z,45.52
2017-06-19T03:36:04.632Z,46
2017-06-19T03:37:14.229Z,46.1
2017-06-19T03:38:24.140Z,46
2017-06-19T03:39:34.532Z,45.81
2017-06-19T03:40:44.746Z,45.91
2017-06-19T03:41:54.352Z,46
2017-06-19T03:43:04.272Z,46.2
2017-06-19T03:44:14.485Z,46
2017-06-19T03:45:24.086Z,46
2017-06-19T03:46:34.009Z,46
2017-06-19T03:47:43.915Z,46.2
2017-06-19T03:48:53.820Z,45.72
2017-06-19T03:50:04.042Z,45.62
2017-06-19T03:51:14.049Z,45.91
2017-06-19T03:52:23.957Z,45.91
2017-06-19T03:53:34.165Z,46.2
2017-06-19T03:54:43.776Z,45.81
2017-06-19T03:55:53.684Z,45.81
2017-06-19T03:57:03.737Z,45.81
2017-06-19T03:58:13.951Z,46
2017-06-19T03:59:23.548Z,45.62
2017-06-19T04:00:33.769Z,45.81
2017-06-19T04:01:43.364Z,46
2017-06-19T04:02:53.273Z,46.1
2017-06-19T04:04:03.486Z,46.2
2017-06-19T04:05:13.417Z,46.1
2017-06-19T04:06:22.711Z,45.91
2017-06-19T04:07:32.622Z,46.1
2017-06-19T04:08:42.683Z,46
2017-06-19T04:09:52.899Z,46.2
2017-06-19T04:11:02.183Z,46.1
2017-06-19T04:12:11.483Z,46
2017-06-19T04:13:21.088Z,45.72
2017-06-19T04:14:30.831Z,46.1
2017-06-19T04:15:40.431Z,46.3
2017-06-19T04:16:50.652Z,46.2
2017-06-19T04:17:59.953Z,46.2
2017-06-19T04:19:09.871Z,46.2
2017-06-19T04:20:19.627Z,46.3
2017-06-19T04:21:29.545Z,46.2
2017-06-19T04:22:39.759Z,46
2017-06-19T04:23:49.974Z,46.1
2017-06-19T04:24:59.884Z,46
2017-06-19T04:26:09.656Z,45.91
2017-06-19T04:27:19.560Z,46.1
2017-06-19T04:28:29.476Z,46
2017-06-19T04:29:39.423Z,46
2017-06-19T04:30:49.640Z,46.3
2017-06-19T04:32:00.202Z,46.49
2017-06-19T04:33:10.127Z,46.1
2017-06-19T04:34:20.050Z,46.3
2017-06-19T04:35:30.281Z,46.1
2017-06-19T04:36:40.191Z,46.2
2017-06-19T04:37:50.102Z,46.68
2017-06-19T04:39:00.030Z,46.58
2017-06-19T04:40:09.685Z,46.49
2017-06-19T04:41:19.299Z,46.39
2017-06-19T04:42:29.519Z,46.3
2017-06-19T04:43:39.508Z,46.39
2017-06-19T04:44:49.727Z,46.2
2017-06-19T04:45:59.969Z,46.68
2017-06-19T04:47:09.874Z,46.39
2017-06-19T04:48:20.099Z,46.2
2017-06-19T04:49:30.377Z,46.2
2017-06-19T04:50:40.601Z,46.1
2017-06-19T04:51:50.214Z,45.72
2017-06-19T04:53:00.189Z,45.81
2017-06-19T04:54:10.410Z,45.91
2017-06-19T04:55:20.809Z,45.72
2017-06-19T04:56:31.039Z,46
2017-06-19T04:57:40.948Z,45.81
2017-06-19T04:58:50.874Z,45.91
2017-06-19T05:00:00.476Z,45.62
2017-06-19T05:01:10.142Z,45.72
2017-06-19T05:02:20.071Z,45.81
2017-06-19T05:03:30.291Z,45.81
2017-06-19T05:04:40.510Z,46.1
2017-06-19T05:05:50.731Z,46.3
2017-06-19T05:07:01.019Z,46
2017-06-19T05:08:10.344Z,46.1
2017-06-19T05:09:19.950Z,46
2017-06-19T05:10:29.248Z,46
2017-06-19T05:11:38.881Z,46.22
2017-06-19T05:12:48.486Z,46.22
2017-06-19T05:13:58.408Z,46.22
2017-06-19T05:15:08.042Z,45.54
2017-06-19T05:16:17.657Z,45.74
2017-06-19T05:17:27.568Z,45.74
2017-06-19T05:18:37.179Z,45.93
2017-06-19T05:19:47.125Z,46.03
2017-06-19T05:20:57.068Z,45.28
2017-06-19T05:22:07.284Z,45.47
2017-06-19T05:23:17.202Z,45.35
2017-06-19T05:24:27.166Z,44.98
2017-06-19T05:25:36.465Z,44.89
2017-06-19T05:26:46.392Z,44.7
2017-06-19T05:27:56.609Z,44.79
2017-06-19T05:29:06.205Z,44.12
2017-06-19T05:30:16.415Z,44.13
2017-06-19T05:31:25.712Z,44.43
2017-06-19T05:32:35.639Z,44.33
2017-06-19T05:33:45.228Z,43.58
2017-06-19T05:34:55.442Z,43.87
2017-06-19T05:36:05.141Z,43.48
2017-06-19T05:37:15.422Z,43.09
2017-06-19T05:38:25.031Z,42.8
2017-06-19T05:39:34.946Z,43.02
2017-06-19T05:40:44.849Z,42.82
2017-06-19T05:41:55.103Z,42.72
2017-06-19T05:43:05.314Z,42.44
2017-06-19T05:44:15.540Z,42.36
2017-06-19T05:45:25.773Z,42.26
2017-06-19T05:46:35.380Z,42.17
2017-06-19T05:47:45.455Z,42.07
2017-06-19T05:48:55.384Z,41.78
2017-06-19T05:50:05.018Z,41.88
2017-06-19T05:51:14.935Z,41.61
2017-06-19T05:52:24.857Z,41.41
2017-06-19T05:53:34.814Z,41.31
2017-06-19T05:54:45.033Z,41.22
2017-06-19T05:55:54.636Z,41.14
2017-06-19T05:57:04.554Z,40.85
2017-06-19T05:58:14.466Z,41.05
2017-06-19T05:59:24.224Z,40.85
2017-06-19T06:00:34.126Z,40.85
2017-06-19T06:01:44.039Z,40.85
2017-06-19T06:02:53.642Z,40.58
2017-06-19T06:04:03.552Z,40.67
2017-06-19T06:05:13.208Z,40.87
2017-06-19T06:06:23.433Z,39.8
2017-06-19T06:07:33.347Z,40.21
2017-06-19T06:08:43.270Z,40.11
2017-06-19T06:09:53.501Z,39.92
2017-06-19T06:11:03.514Z,39.43
2017-06-19T06:12:14.097Z,39.62
2017-06-19T06:13:24.056Z,39.62
2017-06-19T06:14:33.367Z,39.82
2017-06-19T06:15:43.297Z,39.72
2017-06-19T06:16:53.276Z,39.72
2017-06-19T06:18:03.506Z,39.92
2017-06-19T06:19:12.815Z,39.16
2017-06-19T06:20:22.434Z,39.16
2017-06-19T06:21:32.656Z,39.65
2017-06-19T06:22:42.570Z,39.06
2017-06-19T06:23:51.870Z,39.18
2017-06-19T06:25:02.094Z,38.77
2017-06-19T06:26:12.312Z,38.87
2017-06-19T06:27:22.534Z,38.89
2017-06-19T06:28:32.125Z,38.7
2017-06-19T06:29:42.040Z,38.79
2017-06-19T06:30:51.656Z,38.5
2017-06-19T06:32:01.880Z,38.5
2017-06-19T06:33:12.106Z,38.62
2017-06-19T06:34:22.361Z,38.62
2017-06-19T06:35:32.266Z,38.42
2017-06-19T06:36:41.868Z,38.32
2017-06-19T06:37:51.151Z,38.32
2017-06-19T06:39:01.072Z,38.23
2017-06-19T06:40:11.297Z,37.93
2017-06-19T06:41:20.900Z,38.03
2017-06-19T06:42:30.225Z,38.03
2017-06-19T06:43:40.470Z,38.05
2017-06-19T06:44:50.685Z,37.95
2017-06-19T06:46:00.644Z,38.15
2017-06-19T06:47:10.575Z,38.05
2017-06-19T06:48:20.824Z,37.85
2017-06-19T06:49:30.450Z,37.76
2017-06-19T06:50:40.369Z,37.68
2017-06-19T06:51:50.127Z,37.48
2017-06-19T06:53:00.346Z,37.48
2017-06-19T06:54:10.277Z,37.19
2017-06-19T06:55:19.578Z,36.92
2017-06-19T06:56:29.187Z,37.12
2017-06-19T06:57:38.842Z,37.02
2017-06-19T06:58:48.445Z,37.02
2017-06-19T06:59:58.695Z,36.82
2017-06-19T07:01:07.989Z,36.65
2017-06-19T07:02:17.604Z,36.16
2017-06-19T07:03:27.630Z,36.06
2017-06-19T07:04:37.242Z,35.98
2017-06-19T07:05:46.545Z,35.49
2017-06-19T07:06:56.771Z,35.51
2017-06-19T07:08:06.679Z,35.12
2017-06-19T07:09:16.403Z,34.92
2017-06-19T07:10:26.007Z,34.94
2017-06-19T07:11:35.938Z,34.45
2017-06-19T07:12:46.165Z,34.67
2017-06-19T07:13:55.802Z,34.47
2017-06-19T07:15:06.023Z,34.67
2017-06-19T07:16:15.695Z,34.19
2017-06-19T07:17:26.561Z,34
2017-06-19T07:18:35.672Z,33.7
2017-06-19T07:19:45.989Z,33.7
2017-06-19T07:20:56.042Z,33.53
2017-06-19T07:22:06.984Z,33.23
2017-06-19T07:23:16.598Z,32.94
2017-06-19T07:24:27.047Z,33.05
2017-06-19T07:25:37.911Z,32.95
2017-06-19T07:26:48.291Z,32.86
2017-06-19T07:27:58.285Z,32.68
2017-06-19T07:29:08.953Z,32.48
2017-06-19T07:30:18.883Z,32.78
2017-06-19T07:31:28.800Z,32.39
2017-06-19T07:32:38.876Z,32.4
2017-06-19T07:33:49.544Z,32.29
2017-06-19T07:34:59.798Z,32.2
2017-06-19T07:36:09.089Z,32.2
2017-06-19T07:37:18.706Z,32.1
2017-06-19T07:38:28.767Z,31.91
2017-06-19T07:39:38.675Z,31.93
2017-06-19T07:40:48.605Z,31.73
2017-06-19T07:41:58.527Z,31.73
2017-06-19T07:43:08.439Z,31.44
2017-06-19T07:44:18.501Z,31.16
2017-06-19T07:45:28.720Z,30.77
2017-06-19T07:46:38.627Z,30.58
2017-06-19T07:47:48.864Z,30.49
2017-06-19T07:48:58.491Z,30.21
2017-06-19T07:50:08.421Z,29.83
2017-06-19T07:51:18.353Z,29.44
2017-06-19T07:52:28.276Z,29.45
2017-06-19T07:53:38.226Z,29.37
2017-06-19T07:54:48.152Z,28.97
2017-06-19T07:55:58.106Z,28.3
2017-06-19T07:57:07.732Z,28.4
2017-06-19T07:58:17.338Z,28.22
2017-06-19T07:59:27.263Z,27.84
2017-06-19T08:00:36.582Z,27.75
2017-06-19T08:01:46.649Z,26.97
2017-06-19T08:02:56.569Z,26.88
2017-06-19T08:04:05.878Z,26.99
2017-06-19T08:05:16.109Z,26.5
2017-06-19T08:06:26.038Z,26.21
2017-06-19T08:07:36.061Z,26.12
2017-06-19T08:08:45.683Z,25.73
2017-06-19T08:09:55.612Z,25.74
2017-06-19T08:11:05.242Z,25.55
2017-06-19T08:12:15.153Z,25.26
2017-06-19T08:13:24.763Z,25.27
2017-06-19T08:14:34.055Z,24.88
2017-06-19T08:15:43.972Z,24.79
2017-06-19T08:16:54.207Z,24.68
2017-06-19T08:18:03.201Z,24.9
2017-06-19T08:19:13.465Z,24.2
2017-06-19T08:20:23.724Z,24.32
2017-06-19T08:21:33.942Z,24.41
2017-06-19T08:22:43.561Z,24.11
2017-06-19T08:23:52.871Z,23.93
2017-06-19T08:25:02.939Z,24.13
2017-06-19T08:26:12.562Z,24.13
2017-06-19T08:27:22.183Z,23.84
2017-06-19T08:28:32.120Z,23.94
2017-06-19T08:29:41.123Z,23.74
2017-06-19T08:30:51.105Z,23.84
2017-06-19T08:32:00.707Z,23.66
2017-06-19T08:33:10.659Z,23.75
2017-06-19T08:34:19.672Z,23.66
2017-06-19T08:35:28.981Z,23.85
2017-06-19T08:36:39.280Z,23.75
2017-06-19T08:37:49.198Z,24.15
2017-06-19T08:38:59.111Z,24.24
2017-06-19T08:40:08.726Z,24.92
2017-06-19T08:41:18.348Z,25.7
2017-06-19T08:42:27.967Z,26.76
2017-06-19T08:43:37.608Z,27.44
2017-06-19T08:44:47.880Z,27.72
2017-06-19T08:45:57.800Z,28.48
2017-06-19T08:47:07.709Z,29.24
2017-06-19T08:48:17.312Z,29.52
2017-06-19T08:49:27.228Z,30.1
2017-06-19T08:50:37.140Z,30.77
2017-06-19T08:51:46.750Z,31.15
2017-06-19T08:52:56.061Z,31.73
2017-06-19T08:54:05.994Z,32.12
2017-06-19T08:55:16.229Z,32.28
2017-06-19T08:56:26.461Z,32.78
2017-06-19T08:57:36.079Z,33.05
2017-06-19T08:58:45.394Z,33.72
2017-06-19T08:59:55.321Z,34
2017-06-19T09:01:04.927Z,34.3
2017-06-19T09:02:15.181Z,34.96
2017-06-19T09:03:24.794Z,34.94
2017-06-19T09:04:35.034Z,34.94
2017-06-19T09:05:45.401Z,35.71
2017-06-19T09:06:55.025Z,35.52
2017-06-19T09:08:04.638Z,36.08
2017-06-19T09:09:14.618Z,36.07
2017-06-19T09:10:24.252Z,36.55
2017-06-19T09:11:33.911Z,36.55
2017-06-19T09:12:44.182Z,36.93
2017-06-19T09:13:54.110Z,37.12
2017-06-19T09:15:03.731Z,37.11
2017-06-19T09:16:13.668Z,37.5
2017-06-19T09:17:23.609Z,37.4
2017-06-19T09:18:33.226Z,37.89
2017-06-19T09:19:43.474Z,37.96
2017-06-19T09:20:53.708Z,38.35
2017-06-19T09:22:03.644Z,38.14
2017-06-19T09:23:13.025Z,38.04
2017-06-19T09:24:22.981Z,38.04
2017-06-19T09:25:32.613Z,38.42
2017-06-19T09:26:42.852Z,38.61
2017-06-19T09:27:52.780Z,38.81
2017-06-19T09:29:02.483Z,38.71
2017-06-19T09:30:12.431Z,38.49
2017-06-19T09:31:21.447Z,38.69
2017-06-19T09:32:31.084Z,39.08
2017-06-19T09:33:41.042Z,39.18
2017-06-19T09:34:51.116Z,39.18
2017-06-19T09:36:01.027Z,39.08
2017-06-19T09:37:10.702Z,39.18
2017-06-19T09:38:20.621Z,39.37
2017-06-19T09:39:30.863Z,39.37
2017-06-19T09:40:40.959Z,39.36
2017-06-19T09:41:50.882Z,39.26
2017-06-19T09:43:00.491Z,39.36
2017-06-19T09:44:10.401Z,39.45
2017-06-19T09:45:20.010Z,39.65
2017-06-19T09:46:30.076Z,39.75
2017-06-19T09:47:39.381Z,39.84
2017-06-19T09:48:49.599Z,39.75
2017-06-19T09:49:59.528Z,39.75
2017-06-19T09:51:08.858Z,39.62
2017-06-19T09:52:18.552Z,39.65
2017-06-19T09:53:28.479Z,39.53
2017-06-19T09:54:38.104Z,39.43
2017-06-19T09:55:48.361Z,39.34
2017-06-19T09:56:57.661Z,39.34
2017-06-19T09:58:08.042Z,39.24
2017-06-19T09:59:18.301Z,39.34
2017-06-19T10:00:28.454Z,39.34
2017-06-19T10:01:38.064Z,39.43
2017-06-19T10:02:47.975Z,39.43
2017-06-19T10:03:57.886Z,39.92
2017-06-19T10:05:07.804Z,39.34
2017-06-19T10:06:17.723Z,40.01
2017-06-19T10:07:27.634Z,40
2017-06-19T10:08:36.982Z,39.9
2017-06-19T10:09:46.621Z,39.8
2017-06-19T10:10:56.242Z,39.9
2017-06-19T10:12:05.553Z,39.8
2017-06-19T10:13:15.766Z,39.9
2017-06-19T10:14:25.701Z,40
2017-06-19T10:15:35.428Z,39.8
2017-06-19T10:16:45.038Z,39.8
2017-06-19T10:17:55.370Z,39.8
2017-06-19T10:19:04.669Z,39.7
2017-06-19T10:20:14.272Z,39.61
2017-06-19T10:21:24.529Z,39.9
2017-06-19T10:22:34.433Z,39.9
2017-06-19T10:23:44.042Z,39.9
2017-06-19T10:24:53.345Z,39.88
2017-06-19T10:26:03.254Z,39.78
2017-06-19T10:27:13.008Z,39.8
2017-06-19T10:28:22.937Z,39.9
2017-06-19T10:29:33.161Z,39.88
2017-06-19T10:30:43.391Z,39.69
2017-06-19T10:31:53.318Z,39.88
2017-06-19T10:33:02.942Z,39.98
2017-06-19T10:34:13.170Z,39.88
2017-06-19T10:35:23.399Z,39.69
2017-06-19T10:36:33.640Z,39.78
2017-06-19T10:37:42.973Z,39.69
2017-06-19T10:38:53.568Z,39.78
2017-06-19T10:40:03.798Z,39.69
2017-06-19T10:41:13.412Z,39.69
2017-06-19T10:42:22.718Z,39.59
2017-06-19T10:43:32.948Z,39.88
2017-06-19T10:44:42.922Z,39.78
2017-06-19T10:45:52.530Z,39.88
2017-06-19T10:47:02.751Z,39.69
2017-06-19T10:48:12.056Z,39.69
2017-06-19T10:49:22.286Z,39.78
2017-06-19T10:50:32.253Z,39.88
2017-06-19T10:51:42.164Z,39.69
2017-06-19T10:52:52.096Z,39.88
2017-06-19T10:54:02.020Z,39.69
2017-06-19T10:55:12.235Z,39.59
2017-06-19T10:56:21.989Z,39.78
2017-06-19T10:57:31.596Z,39.78
2017-06-19T10:58:40.647Z,39.69
2017-06-19T10:59:50.863Z,39.78
2017-06-19T11:01:01.088Z,39.69
2017-06-19T11:02:11.365Z,39.78
2017-06-19T11:03:21.012Z,39.69
2017-06-19T11:04:31.250Z,39.88
2017-06-19T11:05:40.863Z,39.69
2017-06-19T11:06:51.093Z,39.69
2017-06-19T11:08:01.007Z,39.78
2017-06-19T11:09:10.648Z,39.78
2017-06-19T11:10:20.561Z,39.78
2017-06-19T11:11:30.485Z,39.69
2017-06-19T11:12:40.715Z,39.88
2017-06-19T11:13:50.428Z,39.88
2017-06-19T11:15:00.350Z,39.88
2017-06-19T11:16:09.650Z,39.2
2017-06-19T11:17:19.576Z,40.08
2017-06-19T11:18:29.174Z,39.88
2017-06-19T11:19:38.590Z,39.39
2017-06-19T11:20:48.500Z,39.39
2017-06-19T11:21:58.407Z,39.39
2017-06-19T11:23:08.018Z,39.2
2017-06-19T11:24:17.932Z,39.49
2017-06-19T11:25:28.313Z,39.49
2017-06-19T11:26:37.921Z,39.2
2017-06-19T11:27:48.135Z,39.2
2017-06-19T11:28:57.430Z,39.59
2017-06-19T11:30:07.342Z,39.59
2017-06-19T11:31:17.700Z,39.59
2017-06-19T11:32:27.301Z,39.59
2017-06-19T11:33:36.287Z,39.59
2017-06-19T11:34:45.914Z,39.39
2017-06-19T11:35:55.842Z,39.49
2017-06-19T11:37:05.510Z,39.29
2017-06-19T11:38:15.728Z,39.49
2017-06-19T11:39:25.390Z,39.69
2017-06-19T11:40:35.307Z,39.49
2017-06-19T11:41:45.233Z,39.39
2017-06-19T11:42:54.845Z,39.29
2017-06-19T11:44:04.765Z,39.59
2017-06-19T11:45:14.372Z,39.59
2017-06-19T11:46:23.973Z,39.39
2017-06-19T11:47:34.189Z,39.49
2017-06-19T11:48:44.098Z,39.59
2017-06-19T11:49:53.700Z,39.59
2017-06-19T11:51:03.316Z,39.59
2017-06-19T11:52:13.535Z,39.49
2017-06-19T11:53:23.159Z,39.59
2017-06-19T11:54:32.762Z,39.59
2017-06-19T11:55:42.662Z,39.59
2017-06-19T11:56:52.910Z,39.49
2017-06-19T11:58:03.153Z,39.59
2017-06-19T11:59:12.766Z,39.59
2017-06-19T12:00:22.377Z,39.69
2017-06-19T12:01:31.989Z,39.59
2017-06-19T12:02:41.920Z,39.39
2017-06-19T12:03:51.212Z,39.49
2017-06-19T12:05:01.455Z,39.69
2017-06-19T12:06:11.125Z,39.69
2017-06-19T12:07:20.759Z,39.78
2017-06-19T12:08:30.380Z,39.69
2017-06-19T12:09:40.637Z,39.69
2017-06-19T12:10:50.566Z,39.78
2017-06-19T12:12:00.814Z,39.69
2017-06-19T12:13:10.441Z,39.69
2017-06-19T12:14:20.057Z,39.69
2017-06-19T12:15:30.974Z,39.69
2017-06-19T12:16:40.592Z,39.69
2017-06-19T12:17:50.818Z,39.69
2017-06-19T12:19:00.129Z,39.78
2017-06-19T12:20:09.740Z,39.78
2017-06-19T12:21:19.985Z,39.78
2017-06-19T12:22:30.233Z,39.78
2017-06-19T12:23:40.148Z,39.78
2017-06-19T12:24:49.754Z,39.49
2017-06-19T12:25:59.372Z,39.78
2017-06-19T12:27:08.672Z,39.78
2017-06-19T12:28:18.273Z,39.59
2017-06-19T12:29:27.714Z,39.69
2017-06-19T12:30:37.636Z,39.69
2017-06-19T12:31:47.244Z,39.69
2017-06-19T12:32:56.544Z,39.39
2017-06-19T12:34:05.842Z,39.69
2017-06-19T12:35:15.610Z,39.2
2017-06-19T12:36:25.543Z,39.29
2017-06-19T12:37:35.152Z,39.29
2017-06-19T12:38:45.375Z,39.29
2017-06-19T12:39:54.983Z,39.37
2017-06-19T12:41:04.595Z,39.2
2017-06-19T12:42:13.901Z,39.49
2017-06-19T12:43:23.200Z,39.47
2017-06-19T12:44:33.122Z,39.47
2017-06-19T12:45:43.357Z,39.39
2017-06-19T12:46:53.078Z,39.57
2017-06-19T12:48:02.377Z,39.28
2017-06-19T12:49:12.294Z,39.18
2017-06-19T12:50:21.912Z,39.37
2017-06-19T12:51:31.825Z,39.28
2017-06-19T12:52:42.147Z,39.57
2017-06-19T12:53:52.059Z,39.18
2017-06-19T12:55:01.674Z,39.47
2017-06-19T12:56:11.599Z,39.37
2017-06-19T12:57:21.823Z,39.28
2017-06-19T12:58:31.226Z,39.29
2017-06-19T12:59:40.842Z,39.57
2017-06-19T13:00:50.445Z,39.18
2017-06-19T13:02:00.692Z,39.59
2017-06-19T13:03:10.297Z,39.18
2017-06-19T13:04:20.005Z,39.18
2017-06-19T13:05:29.620Z,39.2
2017-06-19T13:06:39.547Z,39.2
2017-06-19T13:07:49.161Z,39.28
2017-06-19T13:08:59.388Z,39.57
2017-06-19T13:10:09.308Z,39.29
2017-06-19T13:11:19.217Z,39.28
2017-06-19T13:12:28.823Z,39.29
2017-06-19T13:13:38.744Z,39.47
2017-06-19T13:14:48.966Z,39.28
2017-06-19T13:15:58.374Z,39.18
2017-06-19T13:17:08.295Z,39.57
2017-06-19T13:18:18.890Z,39.28
2017-06-19T13:19:28.803Z,39.2
2017-06-19T13:20:38.730Z,39.28
2017-06-19T13:21:48.659Z,39.39
2017-06-19T13:22:58.273Z,39.1
2017-06-19T13:24:08.182Z,39.28
2017-06-19T13:25:18.408Z,39.29
2017-06-19T13:26:28.070Z,39.57
2017-06-19T13:27:38.300Z,39.69
2017-06-19T13:28:48.233Z,39.47
2017-06-19T13:29:58.147Z,39.49
2017-06-19T13:31:07.760Z,39.49
2017-06-19T13:32:17.371Z,39.57
2017-06-19T13:33:26.673Z,39.29
2017-06-19T13:34:36.265Z,39.39
2017-06-19T13:35:45.267Z,39.57
2017-06-19T13:36:55.489Z,39.18
2017-06-19T13:38:05.399Z,39.39
2017-06-19T13:39:15.105Z,39.2
2017-06-19T13:40:25.037Z,39.47
2017-06-19T13:41:34.960Z,39.59
2017-06-19T13:42:44.613Z,39.39
2017-06-19T13:43:54.223Z,39.59
2017-06-19T13:45:04.140Z,39.29
2017-06-19T13:46:14.377Z,39.49
2017-06-19T13:47:24.000Z,39.39
2017-06-19T13:48:33.595Z,39.49
2017-06-19T13:49:43.508Z,39.39
2017-06-19T13:50:53.268Z,39.29
2017-06-19T13:52:02.577Z,39.2
2017-06-19T13:53:12.211Z,39.29
2017-06-19T13:54:21.515Z,39.39
2017-06-19T13:55:31.123Z,39.2
2017-06-19T13:56:40.436Z,39.49
2017-06-19T13:57:50.346Z,39.59
2017-06-19T13:58:59.963Z,39.59
2017-06-19T14:00:08.958Z,39.2
2017-06-19T14:01:18.260Z,39.29
2017-06-19T14:02:28.182Z,39.29
2017-06-19T14:03:37.783Z,39.49
2017-06-19T14:04:48.011Z,39.59
2017-06-19T14:05:58.303Z,39.49
2017-06-19T14:07:08.227Z,39.39
2017-06-19T14:08:18.238Z,39.49
2017-06-19T14:09:27.243Z,39.59
2017-06-19T14:10:36.854Z,39.59
2017-06-19T14:11:46.773Z,39.2
2017-06-19T14:12:56.692Z,39.49
2017-06-19T14:14:06.707Z,39.59
2017-06-19T14:15:16.319Z,39.59
2017-06-19T14:16:26.249Z,39.2
2017-06-19T14:17:35.868Z,39.59
2017-06-19T14:18:45.783Z,39.59
2017-06-19T14:19:55.906Z,39.59
2017-06-19T14:21:06.150Z,39.59
2017-06-19T14:22:16.407Z,39.59
2017-06-19T14:23:26.009Z,39.59
2017-06-19T14:24:35.929Z,39.49
2017-06-19T14:25:45.680Z,39.69
2017-06-19T14:26:55.615Z,39.69
2017-06-19T14:28:05.537Z,39.59
2017-06-19T14:29:14.839Z,39.69
2017-06-19T14:30:24.444Z,39.69
2017-06-19T14:31:34.400Z,39.59
2017-06-19T14:32:44.338Z,39.59
2017-06-19T14:33:54.257Z,39.59
2017-06-19T14:35:03.569Z,39.69
2017-06-19T14:36:13.492Z,39.59
2017-06-19T14:37:23.263Z,39.59
2017-06-19T14:38:33.184Z,39.59
2017-06-19T14:39:43.136Z,39.69
2017-06-19T14:40:53.059Z,39.59
2017-06-19T14:42:02.985Z,39.59
2017-06-19T14:43:13.551Z,39.69
2017-06-19T14:44:23.798Z,39.59
2017-06-19T14:45:33.734Z,39.59
2017-06-19T14:46:43.668Z,39.49
2017-06-19T14:47:53.595Z,39.69
2017-06-19T14:49:03.364Z,39.59
2017-06-19T14:50:13.281Z,39.69
2017-06-19T14:51:23.212Z,39.78
2017-06-19T14:52:32.853Z,39.69
2017-06-19T14:53:42.489Z,39.78
2017-06-19T14:54:52.588Z,39.69
2017-06-19T14:56:02.198Z,39.78
2017-06-19T14:57:12.155Z,39.78
2017-06-19T14:58:22.381Z,39.78
2017-06-19T14:59:32.598Z,39.59
2017-06-19T15:00:42.272Z,39.78
2017-06-19T15:01:52.184Z,39.69
2017-06-19T15:03:02.105Z,39.78
2017-06-19T15:04:11.727Z,39.78
2017-06-19T15:05:21.640Z,39.78